Time;durP1;ratioP1;P1;durP2;ratioP2;P2;SDS_P1;SDS_P2;PMS_P1;PMS_P2;Temp;Humidity;BMP_temperature;BMP_pressure;BME280_temperature;BME280_humidity;BME280_pressure;Samples;Min_cycle;Max_cycle;Signal;HPM_P1;HPM_P2
2022/06/29 00:00:35;;;;;;;6.38;2.70;;;15.30;99.90;;;;;;4999057;28;20434;-69
2022/06/29 00:03:00;;;;;;;5.75;2.67;;;15.30;99.90;;;;;;4998439;28;20076;-69
2022/06/29 00:05:26;;;;;;;5.03;3.30;;;15.20;99.90;;;;;;5016296;28;20041;-69
2022/06/29 00:07:54;;;;;;;4.40;2.70;;;15.20;99.90;;;;;;4999842;28;20049;-69
2022/06/29 00:10:20;;;;;;;10.02;3.08;;;15.20;99.90;;;;;;5015918;28;20049;-69
2022/06/29 00:12:47;;;;;;;5.43;2.50;;;15.10;99.90;;;;;;5016571;28;20355;-69
2022/06/29 00:15:14;;;;;;;4.22;2.78;;;15.10;99.90;;;;;;5016266;28;20093;-69
2022/06/29 00:17:39;;;;;;;4.53;2.80;;;15.10;99.90;;;;;;5015484;28;20053;-69
2022/06/29 00:20:10;;;;;;;6.22;3.17;;;15.00;99.90;;;;;;5016008;28;20038;-69
2022/06/29 00:22:36;;;;;;;3.90;2.78;;;15.00;99.90;;;;;;4998748;28;20399;-69
2022/06/29 00:25:02;;;;;;;4.80;3.17;;;15.00;99.90;;;;;;5016058;28;20399;-69
2022/06/29 00:27:29;;;;;;;4.78;2.50;;;15.00;99.90;;;;;;5016418;28;20037;-69
2022/06/29 00:29:54;;;;;;;5.05;3.17;;;14.90;99.90;;;;;;4998635;28;20046;-69
2022/06/29 00:32:20;;;;;;;4.72;2.75;;;14.80;99.90;;;;;;5015047;28;20084;-69
2022/06/29 00:34:46;;;;;;;6.05;2.95;;;14.80;99.90;;;;;;4998517;28;20370;-69
2022/06/29 00:37:11;;;;;;;6.15;2.35;;;14.80;99.90;;;;;;4999373;28;20049;-69
2022/06/29 00:39:37;;;;;;;5.32;2.90;;;14.80;99.90;;;;;;4998366;28;20045;-68
2022/06/29 00:42:03;;;;;;;5.50;2.67;;;14.80;99.90;;;;;;4998372;28;20049;-69
2022/06/29 00:44:29;;;;;;;6.95;3.05;;;14.70;99.90;;;;;;5015650;28;20477;-69
2022/06/29 00:46:59;;;;;;;3.80;2.50;;;14.70;99.90;;;;;;4998070;28;20084;-70
2022/06/29 00:49:27;;;;;;;6.07;2.65;;;14.60;99.90;;;;;;4995033;28;20052;-68
2022/06/29 00:52:14;;;;;;;6.78;3.53;;;14.60;99.90;;;;;;5014847;28;20069;-69
2022/06/29 00:54:59;;;;;;;5.20;3.20;;;14.60;99.90;;;;;;5015321;28;20038;-69
2022/06/29 00:57:27;;;;;;;4.70;2.70;;;14.60;99.90;;;;;;4998652;28;20041;-69
2022/06/29 00:59:58;;;;;;;5.50;2.90;;;14.60;99.90;;;;;;4997985;28;20120;-69
2022/06/29 01:02:28;;;;;;;3.58;2.67;;;14.50;99.90;;;;;;5014600;28;20046;-68
2022/06/29 01:04:55;;;;;;;10.02;2.95;;;14.50;99.90;;;;;;5015594;28;20049;-69
2022/06/29 01:07:26;;;;;;;4.35;3.10;;;14.50;99.90;;;;;;4981760;28;20085;-69
2022/06/29 01:09:52;;;;;;;6.65;3.28;;;14.50;99.90;;;;;;4998093;28;20104;-68
2022/06/29 01:12:18;;;;;;;5.30;3.20;;;14.60;99.90;;;;;;4997797;28;20064;-69
2022/06/29 01:14:46;;;;;;;4.88;3.25;;;14.50;99.90;;;;;;5015117;28;20100;-69
2022/06/29 01:17:12;;;;;;;6.93;3.55;;;14.50;99.90;;;;;;4997622;28;20042;-68
2022/06/29 01:19:38;;;;;;;10.48;2.95;;;14.60;99.90;;;;;;4997916;28;20049;-69
2022/06/29 01:22:12;;;;;;;5.85;3.60;;;14.50;99.90;;;;;;5000037;28;20076;-69
2022/06/29 01:24:39;;;;;;;8.23;3.17;;;14.50;99.90;;;;;;5004130;28;20049;-70
2022/06/29 01:27:05;;;;;;;3.80;2.70;;;14.60;99.90;;;;;;5021443;28;20454;-69
2022/06/29 01:29:31;;;;;;;7.15;3.65;;;14.60;99.90;;;;;;5021484;28;20100;-69
2022/06/29 01:31:57;;;;;;;6.35;3.13;;;14.60;99.90;;;;;;5003796;28;20057;-69
2022/06/29 01:34:25;;;;;;;10.63;3.83;;;14.60;99.90;;;;;;5004361;28;20049;-69
2022/06/29 01:36:51;;;;;;;4.57;3.40;;;14.60;99.90;;;;;;5021940;28;20038;-69
2022/06/29 01:39:17;;;;;;;6.55;3.90;;;14.70;99.90;;;;;;5021463;28;20049;-69
2022/06/29 01:41:43;;;;;;;6.07;3.40;;;14.60;99.90;;;;;;5004405;28;20065;-69
2022/06/29 01:44:09;;;;;;;10.02;4.38;;;14.70;99.90;;;;;;5021578;28;20129;-69
2022/06/29 01:46:37;;;;;;;10.90;4.00;;;14.70;99.90;;;;;;4986363;28;20144;-69
2022/06/29 01:49:03;;;;;;;6.18;3.97;;;14.70;99.90;;;;;;5003826;28;20369;-68
2022/06/29 01:51:32;;;;;;;7.60;3.83;;;14.80;99.90;;;;;;4987513;28;20136;-69
2022/06/29 01:53:58;;;;;;;5.68;3.92;;;14.80;99.90;;;;;;5021323;28;20042;-69
2022/06/29 01:56:29;;;;;;;6.35;3.10;;;14.80;99.90;;;;;;5021209;28;20060;-68
2022/06/29 01:58:54;;;;;;;5.10;3.90;;;14.90;99.90;;;;;;4987622;28;20092;-69
2022/06/29 02:01:20;;;;;;;5.60;3.85;;;14.90;99.90;;;;;;5020187;28;20037;-68
2022/06/29 02:03:46;;;;;;;7.78;3.42;;;15.00;99.90;;;;;;4986877;28;20442;-69
2022/06/29 02:06:12;;;;;;;5.50;4.00;;;14.60;99.90;;;;;;5003734;28;20154;-69
2022/06/29 02:08:38;;;;;;;8.35;3.88;;;15.10;99.90;;;;;;5003773;28;20128;-69
2022/06/29 02:11:04;;;;;;;5.57;4.05;;;15.00;99.90;;;;;;5021125;28;20026;-69
2022/06/29 02:13:30;;;;;;;8.02;3.67;;;15.00;99.90;;;;;;5020942;28;20049;-68
2022/06/29 02:15:56;;;;;;;7.75;4.05;;;15.00;99.90;;;;;;5003991;28;20044;-69
2022/06/29 02:18:21;;;;;;;7.30;3.85;;;15.20;99.90;;;;;;4991724;28;20065;-69
2022/06/29 02:20:47;;;;;;;5.30;4.03;;;15.10;99.90;;;;;;4999973;28;20068;-69
2022/06/29 02:23:13;;;;;;;7.78;4.68;;;15.10;99.90;;;;;;5003174;28;20112;-69
2022/06/29 02:25:39;;;;;;;5.78;4.10;;;15.10;99.90;;;;;;5003412;28;20053;-69
2022/06/29 02:28:04;;;;;;;6.90;4.45;;;15.20;99.90;;;;;;4987220;28;20116;-69
2022/06/29 02:36:02;;;;;;;7.40;4.40;;;15.20;99.90;;;;;;5000640;28;20053;-69
2022/06/29 02:38:27;;;;;;;7.50;4.18;;;15.20;99.90;;;;;;5017831;28;20088;-69
2022/06/29 02:40:53;;;;;;;8.63;4.45;;;15.20;99.90;;;;;;5000639;28;20049;-69
2022/06/29 02:43:19;;;;;;;6.78;3.67;;;15.20;99.90;;;;;;5000741;28;20049;-69
2022/06/29 02:45:44;;;;;;;7.32;4.80;;;15.20;99.90;;;;;;5000786;28;20378;-69
2022/06/29 02:48:12;;;;;;;5.07;3.72;;;15.10;99.90;;;;;;5016853;28;20455;-69
2022/06/29 02:50:40;;;;;;;8.45;4.25;;;15.20;99.90;;;;;;5017192;28;20470;-69
2022/06/29 02:53:06;;;;;;;8.27;4.47;;;15.20;99.90;;;;;;5017523;28;20045;-69
2022/06/29 02:55:31;;;;;;;8.48;4.53;;;15.20;99.90;;;;;;5000053;28;20042;-69
2022/06/29 02:58:00;;;;;;;7.88;3.97;;;15.20;99.90;;;;;;5017429;28;20044;-68
2022/06/29 03:00:25;;;;;;;7.43;4.30;;;15.20;99.90;;;;;;5000485;28;20038;-68
2022/06/29 03:02:54;;;;;;;12.13;3.95;;;15.20;99.90;;;;;;4999424;28;20033;-68
2022/06/29 03:05:20;;;;;;;6.32;4.20;;;15.20;99.90;;;;;;5017339;28;20077;-68
2022/06/29 03:07:46;;;;;;;7.72;4.53;;;15.20;99.90;;;;;;5017522;28;20066;-68
2022/06/29 03:10:11;;;;;;;7.00;4.25;;;15.20;99.90;;;;;;5000105;28;20038;-69
2022/06/29 03:12:37;;;;;;;6.45;3.95;;;15.10;99.90;;;;;;4999846;28;20128;-68
2022/06/29 03:15:03;;;;;;;7.82;4.03;;;15.10;99.90;;;;;;5017334;28;20070;-68
2022/06/29 03:17:29;;;;;;;8.48;4.47;;;15.10;99.90;;;;;;4999330;28;20116;-68
2022/06/29 03:20:01;;;;;;;6.13;4.30;;;15.10;99.90;;;;;;5000167;28;20145;-68
2022/06/29 03:22:27;;;;;;;7.60;4.53;;;15.10;99.90;;;;;;4983300;28;20052;-68
2022/06/29 03:24:59;;;;;;;6.97;4.25;;;15.10;99.90;;;;;;4999728;28;20374;-68
2022/06/29 03:27:27;;;;;;;7.70;4.55;;;15.10;99.90;;;;;;5016609;28;20053;-68
2022/06/29 03:29:53;;;;;;;8.95;4.88;;;15.00;99.90;;;;;;4999605;28;20454;-68
2022/06/29 03:32:18;;;;;;;8.45;4.10;;;15.00;99.90;;;;;;5016252;28;20427;-68
2022/06/29 03:34:44;;;;;;;8.55;4.57;;;15.00;99.90;;;;;;5016469;28;20073;-68
2022/06/29 03:37:12;;;;;;;9.85;4.63;;;15.00;99.90;;;;;;5016778;28;20042;-68
2022/06/29 03:39:38;;;;;;;6.38;4.07;;;15.00;99.90;;;;;;4999202;28;20042;-68
2022/06/29 03:42:06;;;;;;;6.90;3.92;;;15.00;99.90;;;;;;5016771;28;20554;-68
2022/06/29 03:44:32;;;;;;;5.38;3.78;;;15.00;99.90;;;;;;4998843;28;20081;-67
2022/06/29 03:46:58;;;;;;;6.90;3.92;;;15.00;99.90;;;;;;5014763;28;20403;-68
2022/06/29 03:49:24;;;;;;;6.30;4.03;;;15.00;99.90;;;;;;4998639;28;20107;-68
2022/06/29 03:51:49;;;;;;;6.65;3.95;;;15.10;99.90;;;;;;5016397;28;20057;-68
2022/06/29 03:54:18;;;;;;;7.53;3.92;;;15.00;99.90;;;;;;4998862;28;20045;-68
2022/06/29 03:56:43;;;;;;;9.15;4.50;;;15.00;99.90;;;;;;4999285;28;20366;-67
2022/06/29 03:59:13;;;;;;;5.85;4.22;;;15.00;99.90;;;;;;4998931;28;20056;-70
2022/06/29 04:02:01;;;;;;;7.93;4.55;;;15.00;99.90;;;;;;4985478;28;20057;-69
2022/06/29 04:04:26;;;;;;;9.77;4.20;;;15.10;99.90;;;;;;4999225;28;20049;-69
2022/06/29 04:06:52;;;;;;;6.43;4.10;;;15.10;99.90;;;;;;4984067;28;20355;-69
2022/06/29 04:09:18;;;;;;;9.52;5.05;;;15.10;99.90;;;;;;5016029;28;20038;-69
2022/06/29 04:11:49;;;;;;;7.60;4.45;;;15.10;99.90;;;;;;4984481;28;20061;-69
2022/06/29 04:14:16;;;;;;;5.13;3.90;;;15.20;99.90;;;;;;4976079;28;20372;-68
2022/06/29 04:16:41;;;;;;;6.90;3.83;;;15.20;99.90;;;;;;4976087;28;20460;-69
2022/06/29 04:19:07;;;;;;;6.40;4.20;;;15.30;99.90;;;;;;4977036;28;20046;-68
2022/06/29 04:21:35;;;;;;;4.97;3.40;;;15.30;99.90;;;;;;4976296;28;20384;-69
2022/06/29 04:24:01;;;;;;;6.00;4.18;;;15.40;99.90;;;;;;4987178;28;20042;-69
2022/06/29 04:26:27;;;;;;;9.52;4.60;;;15.30;99.90;;;;;;4996353;28;20531;-69
2022/06/29 04:28:52;;;;;;;8.00;4.40;;;15.40;99.90;;;;;;4996188;28;20085;-68
2022/06/29 04:31:18;;;;;;;7.97;4.82;;;15.40;99.90;;;;;;4978659;28;20109;-69
2022/06/29 04:33:43;;;;;;;8.20;4.15;;;15.40;99.90;;;;;;4978894;28;20042;-68
2022/06/29 04:36:12;;;;;;;6.75;3.88;;;15.60;99.90;;;;;;4978820;28;20517;-68
2022/06/29 04:38:38;;;;;;;5.88;4.38;;;15.70;99.90;;;;;;4995724;28;20046;-70
2022/06/29 04:41:06;;;;;;;7.22;4.25;;;15.80;99.90;;;;;;4995647;28;20057;-69
2022/06/29 04:43:32;;;;;;;6.22;4.40;;;15.80;99.90;;;;;;4978509;28;20072;-69
2022/06/29 04:48:45;;;;;;;6.38;4.18;;;16.00;99.90;;;;;;4978580;28;20046;-69
2022/06/29 04:51:11;;;;;;;6.22;4.45;;;16.00;99.90;;;;;;5006825;28;20081;-69
2022/06/29 04:53:37;;;;;;;6.65;4.30;;;16.10;99.90;;;;;;4996065;28;20093;-68
2022/06/29 04:56:03;;;;;;;5.40;3.88;;;16.10;99.90;;;;;;4995802;28;20117;-69
2022/06/29 04:58:28;;;;;;;7.13;3.80;;;16.00;99.90;;;;;;4977726;28;20047;-68
2022/06/29 05:01:01;;;;;;;6.03;3.97;;;16.10;99.90;;;;;;4978587;28;20435;-70
2022/06/29 05:03:27;;;;;;;6.22;4.32;;;16.10;99.90;;;;;;4978499;28;20042;-69
2022/06/29 05:05:53;;;;;;;6.50;4.93;;;16.10;99.90;;;;;;4978146;28;20042;-69
2022/06/29 05:08:18;;;;;;;6.20;4.57;;;16.20;99.90;;;;;;4977846;28;20073;-69
2022/06/29 05:10:44;;;;;;;6.85;4.22;;;16.20;99.90;;;;;;4994594;28;20038;-69
2022/06/29 05:13:12;;;;;;;5.70;4.03;;;16.20;99.90;;;;;;4995829;28;20055;-69
2022/06/29 05:15:38;;;;;;;5.70;4.32;;;16.30;99.90;;;;;;5011189;28;20482;-69
2022/06/29 05:18:05;;;;;;;5.82;4.18;;;16.10;99.90;;;;;;4995484;28;20042;-68
2022/06/29 05:20:30;;;;;;;7.15;4.93;;;16.30;99.90;;;;;;5011054;28;20370;-69
2022/06/29 05:22:56;;;;;;;6.55;4.28;;;16.30;99.90;;;;;;4978343;28;20052;-69
2022/06/29 05:25:22;;;;;;;6.65;4.55;;;16.40;99.90;;;;;;4994546;28;20041;-69
2022/06/29 05:27:48;;;;;;;6.95;4.80;;;16.60;99.90;;;;;;4995210;28;20052;-68
2022/06/29 05:30:17;;;;;;;6.18;4.30;;;16.70;99.90;;;;;;4995615;28;20344;-69
2022/06/29 05:32:43;;;;;;;6.72;4.55;;;16.90;99.90;;;;;;4994655;28;20057;-68
2022/06/29 05:35:13;;;;;;;7.40;3.95;;;17.30;99.90;;;;;;5007471;28;20039;-67
2022/06/29 05:37:39;;;;;;;6.30;4.43;;;17.90;99.90;;;;;;4995241;28;20038;-68
2022/06/29 05:40:05;;;;;;;6.60;4.55;;;18.10;99.90;;;;;;4994644;28;20061;-67
2022/06/29 05:42:31;;;;;;;6.10;4.18;;;18.10;99.90;;;;;;4999545;28;20546;-70
2022/06/29 05:44:56;;;;;;;6.55;3.95;;;18.50;99.90;;;;;;5008732;28;20121;-67
2022/06/29 05:47:22;;;;;;;7.45;4.25;;;18.90;99.90;;;;;;5006403;28;20459;-68
2022/06/29 05:49:47;;;;;;;7.65;3.90;;;19.30;99.90;;;;;;5008494;28;20038;-68
2022/06/29 05:52:13;;;;;;;5.50;4.18;;;20.00;99.90;;;;;;5011956;28;20042;-68
2022/06/29 05:54:41;;;;;;;8.60;3.83;;;21.00;99.90;;;;;;4996895;28;20053;-68
2022/06/29 05:57:07;;;;;;;5.30;3.17;;;21.60;99.90;;;;;;4997149;28;20042;-68
2022/06/29 05:59:33;;;;;;;6.05;3.25;;;22.60;99.90;;;;;;4993126;28;20117;-67
2022/06/29 06:01:59;;;;;;;6.35;3.58;;;23.50;99.90;;;;;;5002492;28;20133;-67
2022/06/29 06:04:28;;;;;;;5.88;3.10;;;24.60;99.90;;;;;;5014246;28;20037;-67
2022/06/29 06:06:56;;;;;;;5.18;3.15;;;25.30;99.90;;;;;;4996508;28;20042;-68
2022/06/29 06:09:26;;;;;;;4.47;2.70;;;25.90;99.90;;;;;;5016985;28;20046;-69
2022/06/29 06:11:53;;;;;;;5.85;2.70;;;26.60;98.90;;;;;;5018225;28;20048;-67
2022/06/29 06:14:18;;;;;;;3.78;2.63;;;26.50;99.30;;;;;;4982194;28;20063;-67
2022/06/29 06:16:44;;;;;;;5.88;2.70;;;26.90;98.50;;;;;;5014161;28;20041;-70
2022/06/29 06:19:12;;;;;;;4.20;2.70;;;27.40;98.90;;;;;;5017706;28;20453;-68
2022/06/29 06:21:38;;;;;;;3.47;2.30;;;27.60;96.90;;;;;;5017613;28;20053;-67
2022/06/29 06:24:04;;;;;;;5.00;2.33;;;27.80;96.70;;;;;;5001954;28;20136;-67
2022/06/29 06:26:31;;;;;;;3.88;2.22;;;28.10;97.20;;;;;;5017975;28;20112;-68
2022/06/29 06:28:57;;;;;;;3.67;1.95;;;28.30;96.40;;;;;;5004899;28;20121;-67
2022/06/29 06:31:24;;;;;;;2.72;2.13;;;28.30;95.70;;;;;;5010250;28;20457;-68
2022/06/29 06:33:50;;;;;;;3.90;2.17;;;27.90;95.10;;;;;;5009788;28;20135;-67
2022/06/29 06:36:18;;;;;;;14.77;2.42;;;28.60;96.10;;;;;;4993430;28;20034;-68
2022/06/29 06:38:44;;;;;;;5.28;2.50;;;29.00;96.00;;;;;;5017784;28;20045;-68
2022/06/29 06:41:21;;;;;;;3.05;1.77;;;29.20;95.20;;;;;;5016220;28;20442;-67
2022/06/29 06:43:48;;;;;;;4.32;2.03;;;29.10;94.90;;;;;;5015731;28;20045;-68
2022/06/29 06:46:14;;;;;;;3.70;2.00;;;29.50;95.00;;;;;;5008326;28;20057;-69
2022/06/29 06:48:43;;;;;;;4.85;1.80;;;29.80;94.30;;;;;;5002075;28;20054;-68
2022/06/29 06:51:13;;;;;;;3.00;2.00;;;30.20;93.90;;;;;;5010466;28;20061;-69
2022/06/29 06:53:39;;;;;;;3.30;1.73;;;30.20;93.80;;;;;;4999537;28;20087;-69
2022/06/29 06:56:08;;;;;;;4.95;1.95;;;30.40;92.60;;;;;;5004665;28;20034;-69
2022/06/29 06:58:38;;;;;;;7.70;2.38;;;30.40;93.20;;;;;;5017690;28;20052;-66
2022/06/29 07:01:05;;;;;;;3.13;1.48;;;30.40;92.90;;;;;;4998969;28;20046;-69
2022/06/29 07:03:31;;;;;;;3.50;1.92;;;30.40;92.60;;;;;;5010950;28;20045;-68
2022/06/29 07:05:59;;;;;;;4.45;1.30;;;30.20;92.10;;;;;;5001393;28;20045;-68
2022/06/29 07:08:27;;;;;;;4.25;1.70;;;30.10;92.80;;;;;;4999577;28;20049;-68
2022/06/29 07:10:53;;;;;;;3.88;1.50;;;30.20;92.40;;;;;;5013215;28;20124;-68
2022/06/29 07:13:18;;;;;;;3.05;1.58;;;30.20;91.50;;;;;;5008451;28;20045;-68
2022/06/29 07:15:44;;;;;;;7.93;1.45;;;30.20;92.20;;;;;;5015885;28;20038;-68
2022/06/29 07:18:12;;;;;;;3.72;1.30;;;30.40;91.00;;;;;;4998914;28;20056;-67
2022/06/29 07:20:38;;;;;;;2.63;1.17;;;30.60;91.60;;;;;;5010825;28;20061;-68
2022/06/29 07:23:03;;;;;;;2.13;1.23;;;30.70;90.40;;;;;;5016717;28;20046;-67
2022/06/29 07:25:29;;;;;;;3.53;1.73;;;30.60;90.80;;;;;;4993305;28;20075;-68
2022/06/29 07:27:55;;;;;;;3.38;1.15;;;30.60;90.30;;;;;;5015314;28;20474;-68
2022/06/29 07:30:21;;;;;;;3.17;1.35;;;30.80;91.20;;;;;;5008940;28;20045;-68
2022/06/29 07:32:47;;;;;;;3.08;1.20;;;31.10;90.60;;;;;;5008792;28;20042;-67
2022/06/29 07:35:12;;;;;;;4.65;1.30;;;31.10;87.70;;;;;;5003494;28;20390;-67
2022/06/29 07:37:38;;;;;;;3.75;1.67;;;30.80;90.00;;;;;;5015723;28;20046;-66
2022/06/29 07:40:04;;;;;;;3.78;1.55;;;30.50;86.80;;;;;;5026797;28;20044;-68
2022/06/29 07:42:33;;;;;;;2.92;1.10;;;30.50;89.30;;;;;;5015903;28;20103;-67
2022/06/29 07:44:59;;;;;;;2.03;1.17;;;30.40;88.70;;;;;;5004947;28;20100;-68
2022/06/29 07:47:24;;;;;;;2.53;1.23;;;30.70;88.40;;;;;;5012177;28;20061;-67
2022/06/29 07:49:50;;;;;;;3.65;1.50;;;30.20;86.00;;;;;;5002263;28;20066;-67
2022/06/29 07:52:17;;;;;;;2.55;1.65;;;30.30;88.40;;;;;;5014940;28;20046;-68
2022/06/29 07:54:42;;;;;;;2.97;1.00;;;30.40;87.70;;;;;;4998445;28;20055;-68
2022/06/29 07:57:08;;;;;;;4.95;1.40;;;30.40;87.40;;;;;;4998017;28;20504;-68
2022/06/29 07:59:34;;;;;;;3.28;1.02;;;30.20;87.90;;;;;;4998466;28;20045;-68
2022/06/29 08:02:02;;;;;;;6.53;1.20;;;30.00;86.70;;;;;;4998948;28;20042;-68
2022/06/29 08:04:28;;;;;;;3.53;1.00;;;30.00;88.20;;;;;;5014264;28;20100;-69
2022/06/29 08:06:54;;;;;;;2.85;1.40;;;29.80;89.50;;;;;;4998062;28;20128;-70
2022/06/29 08:09:20;;;;;;;4.00;1.17;;;30.40;89.50;;;;;;4998288;28;20049;-70
2022/06/29 08:11:50;;;;;;;4.55;1.10;;;30.80;89.50;;;;;;4998710;28;20060;-68
2022/06/29 08:14:15;;;;;;;3.22;1.05;;;30.90;87.20;;;;;;4999122;28;20395;-69
2022/06/29 08:16:41;;;;;;;3.08;1.20;;;30.80;87.70;;;;;;5016028;28;20047;-68
2022/06/29 08:19:06;;;;;;;4.45;1.30;;;30.10;85.90;;;;;;5015652;28;20113;-69
2022/06/29 08:21:32;;;;;;;3.40;1.00;;;29.50;87.20;;;;;;4998040;28;20542;-68
2022/06/29 08:23:58;;;;;;;3.58;1.10;;;29.20;86.90;;;;;;4997887;28;20425;-69
2022/06/29 08:26:23;;;;;;;3.40;1.30;;;29.20;90.10;;;;;;4998247;28;20038;-67
2022/06/29 08:28:49;;;;;;;2.22;1.08;;;29.30;88.00;;;;;;5015072;28;20038;-70
2022/06/29 08:31:14;;;;;;;4.00;1.00;;;29.10;86.40;;;;;;4998245;28;20388;-68
2022/06/29 08:33:40;;;;;;;2.00;1.08;;;28.70;88.50;;;;;;4998859;28;20042;-69
2022/06/29 08:36:06;;;;;;;3.22;0.98;;;28.40;88.00;;;;;;5015316;28;20033;-70
2022/06/29 08:38:32;;;;;;;8.88;1.45;;;28.20;88.20;;;;;;5015799;28;20038;-71
2022/06/29 08:40:57;;;;;;;2.28;1.15;;;27.90;88.30;;;;;;5015562;28;20065;-69
2022/06/29 08:43:23;;;;;;;1.48;1.00;;;27.40;90.20;;;;;;5015854;28;20121;-69
2022/06/29 08:45:53;;;;;;;1.75;1.00;;;27.40;90.70;;;;;;5015371;28;20042;-69
2022/06/29 08:48:19;;;;;;;2.30;1.05;;;27.10;89.60;;;;;;5015531;28;20065;-69
2022/06/29 08:50:54;;;;;;;2.45;1.17;;;27.20;90.60;;;;;;4997488;28;20077;-69
2022/06/29 08:53:21;;;;;;;3.22;1.20;;;27.50;91.00;;;;;;5015500;28;20050;-70
2022/06/29 08:55:48;;;;;;;3.10;1.30;;;27.90;90.20;;;;;;5015408;28;20386;-69
2022/06/29 08:58:22;;;;;;;2.20;1.27;;;28.60;90.40;;;;;;5015389;28;20045;-69
2022/06/29 09:00:51;;;;;;;4.13;1.10;;;29.40;89.90;;;;;;4997871;28;20057;-69
2022/06/29 09:03:18;;;;;;;3.45;1.13;;;30.10;90.10;;;;;;4982006;28;20064;-69
2022/06/29 09:05:54;;;;;;;2.45;0.90;;;30.40;88.20;;;;;;4993542;28;20060;-70
2022/06/29 09:08:20;;;;;;;1.80;0.90;;;30.50;88.90;;;;;;4998069;28;20037;-68
2022/06/29 09:10:46;;;;;;;2.00;1.05;;;30.60;86.70;;;;;;4997926;28;20418;-69
2022/06/29 09:13:21;;;;;;;3.30;1.30;;;30.90;88.80;;;;;;4998153;28;20513;-69
2022/06/29 09:15:55;;;;;;;1.83;1.05;;;30.70;88.10;;;;;;4997948;28;20057;-69
2022/06/29 09:18:23;;;;;;;1.92;1.23;;;30.20;86.50;;;;;;5015164;28;20120;-69
2022/06/29 09:20:56;;;;;;;3.42;1.17;;;29.70;89.00;;;;;;4997422;28;20132;-70
2022/06/29 09:23:23;;;;;;;2.47;1.30;;;29.60;90.80;;;;;;4996856;28;20046;-70
2022/06/29 09:25:49;;;;;;;2.03;1.10;;;29.50;89.30;;;;;;4991063;28;20049;-68
2022/06/29 09:28:26;;;;;;;1.65;0.95;;;29.50;87.60;;;;;;5007041;28;20037;-69
2022/06/29 09:30:53;;;;;;;3.80;1.20;;;29.30;86.70;;;;;;4997360;28;20052;-70
2022/06/29 09:33:30;;;;;;;4.20;0.90;;;29.10;87.50;;;;;;4981764;28;20046;-69
2022/06/29 09:36:09;;;;;;;1.98;1.00;;;28.70;85.20;;;;;;4997916;28;20050;-69
2022/06/29 09:38:37;;;;;;;4.57;1.40;;;28.80;85.70;;;;;;4981580;28;20054;-69
2022/06/29 09:41:13;;;;;;;1.95;1.00;;;29.00;86.70;;;;;;4997080;28;20041;-69
2022/06/29 09:43:46;;;;;;;2.40;1.25;;;29.00;86.10;;;;;;4998787;28;20136;-69
2022/06/29 09:46:13;;;;;;;1.63;0.95;;;29.20;85.80;;;;;;5001229;28;20056;-69
2022/06/29 09:48:43;;;;;;;1.83;0.80;;;29.30;86.20;;;;;;5018778;28;20056;-70
2022/06/29 09:54:04;;;;;;;3.70;0.90;;;29.70;87.50;;;;;;5018762;28;20046;-70
2022/06/29 09:56:31;;;;;;;4.97;1.15;;;30.00;84.50;;;;;;4981945;28;20038;-69
2022/06/29 09:58:58;;;;;;;3.42;1.45;;;30.30;86.90;;;;;;4981686;28;20418;-67
2022/06/29 10:04:14;;;;;;;4.22;1.40;;;29.80;85.70;;;;;;4981671;28;20065;-69
2022/06/29 10:06:41;;;;;;;2.58;1.35;;;29.70;85.10;;;;;;4981367;28;20054;-69
2022/06/29 10:09:07;;;;;;;1.63;0.98;;;29.70;84.30;;;;;;4998456;28;20483;-70
2022/06/29 10:14:41;;;;;;;2.53;1.38;;;29.40;83.80;;;;;;5000873;28;20470;-69
2022/06/29 10:17:42;;;;;;;2.65;1.20;;;29.20;86.00;;;;;;5018247;28;20097;-69
2022/06/29 10:20:30;;;;;;;4.70;1.20;;;29.10;87.20;;;;;;5018181;28;20042;-70
2022/06/29 10:22:56;;;;;;;4.05;1.30;;;28.70;85.80;;;;;;5018540;28;20048;-69
2022/06/29 10:25:27;;;;;;;2.38;1.30;;;28.70;86.50;;;;;;5017610;28;20041;-69
2022/06/29 10:28:20;;;;;;;2.22;1.10;;;28.70;86.30;;;;;;5017967;28;20034;-70
2022/06/29 10:30:47;;;;;;;2.17;0.95;;;28.70;84.50;;;;;;5000669;28;20050;-69
2022/06/29 10:33:34;;;;;;;2.28;1.20;;;28.50;87.20;;;;;;5000803;28;20108;-69
2022/06/29 10:36:07;;;;;;;2.08;1.20;;;28.70;85.30;;;;;;5017918;28;20049;-70
2022/06/29 10:38:53;;;;;;;3.65;1.20;;;28.70;84.90;;;;;;5017481;28;20434;-70
2022/06/29 10:44:03;;;;;;;2.35;1.10;;;28.50;86.00;;;;;;5000331;28;20128;-68
2022/06/29 10:46:48;;;;;;;4.22;1.33;;;28.40;86.10;;;;;;5000325;28;20049;-69
2022/06/29 10:49:21;;;;;;;1.73;1.10;;;28.30;85.90;;;;;;5017480;28;20048;-70
2022/06/29 10:51:49;;;;;;;1.75;1.17;;;28.10;84.50;;;;;;4984000;28;20139;-68
2022/06/29 10:54:25;;;;;;;6.00;1.10;;;28.10;87.80;;;;;;4989910;28;20054;-69
2022/06/29 10:56:52;;;;;;;2.80;1.17;;;28.20;88.70;;;;;;4982150;28;20069;-69
2022/06/29 10:59:38;;;;;;;1.55;0.95;;;28.40;86.60;;;;;;4980392;28;20467;-70
2022/06/29 11:02:15;;;;;;;3.00;1.20;;;28.90;85.60;;;;;;4980630;28;20056;-70
2022/06/29 11:04:42;;;;;;;2.78;0.80;;;29.00;85.70;;;;;;4980441;28;20057;-70
2022/06/29 11:12:49;;;;;;;2.78;1.05;;;29.60;84.90;;;;;;4980259;28;20462;-70
2022/06/29 11:15:48;;;;;;;3.35;1.00;;;29.80;86.00;;;;;;4997605;28;20116;-69
2022/06/29 11:18:16;;;;;;;4.18;1.10;;;29.90;82.90;;;;;;4980228;28;20202;-69
2022/06/29 11:20:44;;;;;;;2.20;1.05;;;29.90;81.40;;;;;;4980399;28;20451;-69
2022/06/29 11:23:14;;;;;;;2.42;1.00;;;30.10;83.60;;;;;;4997492;28;20371;-70
2022/06/29 11:25:44;;;;;;;3.45;1.02;;;30.10;81.80;;;;;;4983585;28;20046;-70
2022/06/29 11:28:10;;;;;;;3.53;1.05;;;30.40;83.10;;;;;;4960713;28;20050;-68
2022/06/29 11:30:36;;;;;;;3.45;1.38;;;30.30;82.60;;;;;;4960625;28;20053;-69
2022/06/29 11:33:12;;;;;;;4.47;0.93;;;29.90;81.40;;;;;;4976440;28;20510;-70
2022/06/29 11:35:42;;;;;;;1.77;1.10;;;29.80;82.50;;;;;;4960570;28;20460;-69
2022/06/29 11:38:08;;;;;;;4.05;1.35;;;29.70;84.00;;;;;;4979663;28;20090;-69
2022/06/29 11:40:36;;;;;;;2.17;1.20;;;29.40;81.70;;;;;;4979754;28;20054;-69
2022/06/29 11:43:07;;;;;;;2.03;1.20;;;29.50;82.20;;;;;;4980365;28;20117;-69
2022/06/29 11:45:41;;;;;;;2.28;1.27;;;29.60;82.90;;;;;;4979643;28;20049;-69
2022/06/29 11:48:19;;;;;;;2.00;1.05;;;29.70;84.00;;;;;;4979713;28;20231;-68
2022/06/29 11:50:56;;;;;;;2.55;1.13;;;29.60;82.70;;;;;;4987365;28;20069;-69
2022/06/29 11:53:44;;;;;;;4.18;1.38;;;29.20;83.60;;;;;;4982141;28;20582;-68
2022/06/29 11:56:18;;;;;;;2.67;1.30;;;29.30;82.40;;;;;;4998965;28;20042;-69
2022/06/29 11:58:50;;;;;;;6.13;1.30;;;29.30;83.20;;;;;;4998992;28;20041;-68
2022/06/29 12:01:21;;;;;;;3.15;1.10;;;29.30;83.90;;;;;;4998614;28;20446;-69
2022/06/29 12:03:49;;;;;;;4.53;1.40;;;29.40;84.50;;;;;;5016252;28;20038;-69
2022/06/29 12:06:16;;;;;;;3.95;1.50;;;29.60;83.50;;;;;;4998733;28;20057;-69
2022/06/29 12:08:41;;;;;;;2.58;1.52;;;29.80;82.20;;;;;;4998863;28;20409;-68
2022/06/29 12:11:07;;;;;;;2.33;1.35;;;29.70;82.50;;;;;;4998946;28;20045;-68
2022/06/29 12:13:33;;;;;;;2.58;1.35;;;29.40;82.70;;;;;;5016117;28;20131;-69
2022/06/29 12:15:59;;;;;;;2.60;1.48;;;29.40;84.00;;;;;;4998539;28;20080;-70
2022/06/29 12:18:25;;;;;;;3.83;1.40;;;29.60;85.40;;;;;;4982739;28;20100;-69
2022/06/29 12:20:51;;;;;;;3.10;1.30;;;29.60;83.40;;;;;;4998873;28;20409;-69
2022/06/29 12:23:17;;;;;;;3.70;1.70;;;29.90;84.20;;;;;;4997837;28;20037;-69
2022/06/29 12:25:43;;;;;;;3.90;1.60;;;30.20;84.40;;;;;;4981158;28;20038;-68
2022/06/29 12:28:09;;;;;;;4.40;1.27;;;30.20;83.00;;;;;;4982275;28;20053;-70
2022/06/29 12:30:36;;;;;;;3.83;1.38;;;30.20;83.40;;;;;;4982353;28;20124;-69
2022/06/29 12:33:02;;;;;;;2.05;1.40;;;30.30;85.60;;;;;;4982105;28;20037;-69
2022/06/29 12:35:28;;;;;;;2.58;1.80;;;30.40;84.90;;;;;;4998173;28;20046;-69
2022/06/29 12:37:57;;;;;;;4.28;1.70;;;30.40;82.20;;;;;;4998355;28;20108;-69
2022/06/29 12:40:24;;;;;;;4.38;1.95;;;30.10;83.00;;;;;;5015250;28;20053;-69
2022/06/29 12:42:53;;;;;;;3.08;1.77;;;30.20;85.30;;;;;;4998340;28;20049;-69
2022/06/29 12:45:19;;;;;;;4.28;1.90;;;30.20;85.30;;;;;;4998194;28;20034;-69
2022/06/29 12:47:46;;;;;;;4.80;1.90;;;30.20;84.40;;;;;;4982002;28;20418;-69
2022/06/29 12:50:11;;;;;;;5.78;2.30;;;30.20;84.40;;;;;;4997848;28;20534;-70
2022/06/29 12:52:40;;;;;;;3.78;2.08;;;30.20;85.60;;;;;;4997722;28;20129;-68
2022/06/29 12:55:08;;;;;;;4.38;1.63;;;30.20;85.80;;;;;;4998561;28;20087;-69
2022/06/29 12:57:33;;;;;;;3.88;2.05;;;30.10;86.00;;;;;;5014876;28;20502;-68
2022/06/29 13:00:02;;;;;;;2.40;1.50;;;30.00;86.40;;;;;;5015357;28;20148;-69
2022/06/29 13:02:29;;;;;;;3.03;2.03;;;29.90;87.80;;;;;;5015562;28;20078;-70
2022/06/29 13:04:55;;;;;;;2.88;1.90;;;29.70;86.10;;;;;;5015382;28;20116;-70
2022/06/29 13:07:26;;;;;;;3.80;2.28;;;29.90;87.40;;;;;;5014745;28;20105;-70
2022/06/29 13:09:54;;;;;;;3.92;2.08;;;30.20;87.20;;;;;;4997707;28;20077;-69
2022/06/29 13:12:23;;;;;;;2.85;2.00;;;30.30;86.90;;;;;;4998015;28;20045;-68
2022/06/29 13:14:49;;;;;;;4.35;2.15;;;30.20;85.90;;;;;;4997806;28;20042;-70